Time;durP1;ratioP1;P1;durP2;ratioP2;P2;SDS_P1;SDS_P2;PMS_P1;PMS_P2;Temp;Humidity;BMP_temperature;BMP_pressure;BME280_temperature;BME280_humidity;BME280_pressure;Samples;Min_cycle;Max_cycle;Signal;HPM_P1;HPM_P2
2021/11/25 00:01:06;;;;;;;134.37;44.37;;;4.50;99.90;;;;;;5153601;27;20205;-67
2021/11/25 00:03:38;;;;;;;123.30;44.23;;;4.50;99.90;;;;;;5152758;27;20199;-67
2021/11/25 00:06:07;;;;;;;142.00;47.17;;;4.50;99.90;;;;;;5137493;27;20217;-67
2021/11/25 00:08:35;;;;;;;118.63;44.13;;;4.50;99.90;;;;;;5138204;27;20556;-66
2021/11/25 00:11:04;;;;;;;137.33;48.03;;;4.40;99.90;;;;;;5145363;27;20209;-66
2021/11/25 00:13:33;;;;;;;121.30;42.67;;;4.40;99.90;;;;;;5125943;27;20191;-67
2021/11/25 00:16:01;;;;;;;124.83;44.27;;;4.40;99.90;;;;;;5144832;27;20216;-66
2021/11/25 00:18:30;;;;;;;118.80;42.57;;;4.40;99.90;;;;;;5153167;27;20216;-66
2021/11/25 00:21:00;;;;;;;143.97;45.43;;;4.50;99.90;;;;;;5143363;27;20242;-66
2021/11/25 00:23:31;;;;;;;131.73;46.07;;;4.50;99.90;;;;;;5135270;27;20193;-67
2021/11/25 00:25:59;;;;;;;140.77;46.00;;;4.50;99.90;;;;;;5150969;27;20201;-67
2021/11/25 00:28:32;;;;;;;132.80;44.97;;;4.50;99.90;;;;;;5133419;27;20188;-66
2021/11/25 00:31:01;;;;;;;126.47;44.00;;;4.50;99.90;;;;;;5148969;27;20201;-67
2021/11/25 00:33:30;;;;;;;133.70;44.07;;;4.50;99.90;;;;;;5147392;27;20204;-67
2021/11/25 00:36:00;;;;;;;127.83;43.90;;;4.50;99.90;;;;;;5148735;27;20242;-66
2021/11/25 00:38:29;;;;;;;123.33;43.70;;;4.50;99.90;;;;;;5126471;27;20234;-67
2021/11/25 00:40:57;;;;;;;132.90;42.93;;;4.60;99.90;;;;;;5147702;27;20788;-67
2021/11/25 00:43:26;;;;;;;150.47;47.03;;;4.50;99.90;;;;;;5144442;27;20246;-66
2021/11/25 00:45:56;;;;;;;133.23;45.60;;;4.60;99.90;;;;;;5146821;27;20561;-66
2021/11/25 00:48:25;;;;;;;126.87;42.47;;;4.60;99.90;;;;;;5144086;27;20320;-66
2021/11/25 00:50:53;;;;;;;142.30;45.73;;;4.60;99.90;;;;;;5109680;27;20243;-66
2021/11/25 00:53:23;;;;;;;147.03;46.97;;;4.60;99.90;;;;;;5146733;27;20242;-67
2021/11/25 00:55:52;;;;;;;133.60;43.87;;;4.60;99.90;;;;;;5156193;27;20281;-67
2021/11/25 00:58:21;;;;;;;137.83;46.90;;;4.60;99.90;;;;;;5141297;27;20206;-66
2021/11/25 01:00:49;;;;;;;131.30;45.40;;;4.60;99.90;;;;;;5148444;27;21025;-66
2021/11/25 01:03:24;;;;;;;129.63;42.77;;;4.60;99.90;;;;;;5147565;27;20188;-67
2021/11/25 01:05:53;;;;;;;114.17;41.07;;;4.60;99.90;;;;;;5149618;27;20651;-66
2021/11/25 01:08:23;;;;;;;142.80;47.17;;;4.60;99.90;;;;;;5125869;27;20193;-67
2021/11/25 01:10:54;;;;;;;149.73;47.77;;;4.60;99.90;;;;;;5147870;27;20229;-67
2021/11/25 01:13:22;;;;;;;138.50;45.47;;;4.50;99.90;;;;;;5146171;27;20210;-67
2021/11/25 01:15:53;;;;;;;138.60;46.00;;;4.50;99.90;;;;;;5148423;27;20276;-67
2021/11/25 01:18:22;;;;;;;132.37;44.80;;;4.50;99.90;;;;;;5143810;27;20182;-67
2021/11/25 01:20:51;;;;;;;134.13;45.43;;;4.50;99.90;;;;;;5157137;27;20196;-67
2021/11/25 01:23:24;;;;;;;131.07;43.90;;;4.60;99.90;;;;;;5151013;27;20251;-67
2021/11/25 01:25:56;;;;;;;136.70;44.50;;;4.60;99.90;;;;;;5142609;27;20239;-66
2021/11/25 01:28:25;;;;;;;121.27;42.30;;;4.60;99.90;;;;;;5141988;27;20193;-66
2021/11/25 01:30:56;;;;;;;135.37;46.23;;;4.60;99.90;;;;;;5148379;27;20197;-67
2021/11/25 01:33:25;;;;;;;130.53;46.00;;;4.60;99.90;;;;;;5140473;27;20239;-66
2021/11/25 01:35:55;;;;;;;128.93;42.90;;;4.50;99.90;;;;;;5146956;27;20265;-67
2021/11/25 01:38:26;;;;;;;131.57;43.27;;;4.50;99.90;;;;;;5148764;27;20193;-67
2021/11/25 01:40:54;;;;;;;125.67;42.57;;;4.50;99.90;;;;;;5146195;27;21699;-67
2021/11/25 01:43:25;;;;;;;122.23;43.43;;;4.50;99.90;;;;;;5122238;27;20239;-67
2021/11/25 01:45:54;;;;;;;135.30;43.53;;;4.50;99.90;;;;;;5140573;27;20293;-67
2021/11/25 01:48:23;;;;;;;123.40;43.67;;;4.50;99.90;;;;;;5151594;27;20564;-67
2021/11/25 01:50:54;;;;;;;124.83;44.00;;;4.40;99.90;;;;;;5156232;27;20194;-67
2021/11/25 01:53:23;;;;;;;131.90;43.67;;;4.40;99.90;;;;;;5147626;27;20197;-67
2021/11/25 01:55:53;;;;;;;122.13;43.87;;;4.40;99.90;;;;;;5124463;27;20201;-67
2021/11/25 01:58:25;;;;;;;131.53;44.13;;;4.30;99.90;;;;;;5138667;27;20233;-67
2021/11/25 02:00:57;;;;;;;137.47;44.70;;;4.20;99.90;;;;;;5145468;27;20193;-67
2021/11/25 02:03:27;;;;;;;132.90;45.27;;;4.20;99.90;;;;;;5139668;27;20261;-67
2021/11/25 02:05:57;;;;;;;127.40;44.37;;;4.10;99.90;;;;;;5149117;27;20208;-67
2021/11/25 02:08:26;;;;;;;110.97;40.43;;;4.10;99.90;;;;;;5142377;27;20194;-67
2021/11/25 02:10:58;;;;;;;115.13;41.07;;;4.00;99.90;;;;;;5137409;27;20198;-66
2021/11/25 02:13:28;;;;;;;122.80;41.73;;;3.90;99.90;;;;;;5143556;27;20780;-66
2021/11/25 02:15:57;;;;;;;117.43;41.37;;;3.90;99.90;;;;;;5137193;27;20272;-66
2021/11/25 02:18:30;;;;;;;126.27;41.27;;;3.80;99.90;;;;;;5144385;27;20208;-66
2021/11/25 02:21:03;;;;;;;118.33;40.70;;;3.80;99.90;;;;;;5132097;27;20243;-67
2021/11/25 02:23:32;;;;;;;126.07;42.03;;;3.70;99.90;;;;;;5154901;27;20193;-66
2021/11/25 02:26:01;;;;;;;120.37;40.53;;;3.80;99.90;;;;;;5144708;27;20212;-67
2021/11/25 02:28:32;;;;;;;115.03;39.23;;;3.80;99.90;;;;;;5140508;27;20204;-67
2021/11/25 02:31:01;;;;;;;130.23;42.50;;;3.80;99.90;;;;;;5148072;27;20193;-66
2021/11/25 02:33:30;;;;;;;139.07;42.60;;;3.90;99.90;;;;;;5145444;27;20205;-67
2021/11/25 02:36:03;;;;;;;126.73;41.97;;;3.90;99.90;;;;;;5123634;27;20242;-66
2021/11/25 02:38:32;;;;;;;143.93;45.03;;;3.90;99.90;;;;;;5142662;27;20217;-67
2021/11/25 02:41:01;;;;;;;127.73;43.53;;;4.00;99.90;;;;;;5145888;27;20209;-66
2021/11/25 02:43:30;;;;;;;141.70;45.33;;;4.00;99.90;;;;;;5144469;27;20265;-67
2021/11/25 02:46:03;;;;;;;135.10;44.20;;;4.00;99.90;;;;;;5128657;27;20189;-67
2021/11/25 02:48:42;;;;;;;145.20;46.30;;;4.00;99.90;;;;;;5138744;27;20593;-66
2021/11/25 02:51:16;;;;;;;132.63;44.03;;;4.10;99.90;;;;;;5125101;27;20193;-67
2021/11/25 02:53:44;;;;;;;132.70;45.37;;;4.10;99.90;;;;;;5142993;27;20246;-67
2021/11/25 02:56:15;;;;;;;133.37;42.53;;;4.10;99.90;;;;;;5139529;27;20192;-66
2021/11/25 02:58:44;;;;;;;132.33;43.70;;;4.10;99.90;;;;;;5126150;27;20196;-67
2021/11/25 03:01:16;;;;;;;134.93;43.57;;;4.10;99.90;;;;;;5142472;27;20271;-67
2021/11/25 03:03:45;;;;;;;132.17;43.83;;;4.10;99.90;;;;;;5144786;27;20200;-67
2021/11/25 03:06:16;;;;;;;146.97;44.37;;;4.10;99.90;;;;;;5142720;27;20199;-67
2021/11/25 03:08:45;;;;;;;112.50;38.70;;;4.10;99.90;;;;;;5144111;27;20216;-66
2021/11/25 03:11:20;;;;;;;125.17;41.13;;;4.10;99.90;;;;;;5144801;27;20664;-67
2021/11/25 03:13:50;;;;;;;120.00;41.17;;;4.10;99.90;;;;;;5123568;27;20186;-67
2021/11/25 03:16:20;;;;;;;124.50;40.67;;;4.00;99.90;;;;;;5145576;27;20195;-67
2021/11/25 03:18:50;;;;;;;119.07;40.20;;;4.00;99.90;;;;;;5151850;27;20231;-67
2021/11/25 03:21:21;;;;;;;136.07;42.77;;;4.10;99.90;;;;;;5133019;27;20206;-67
2021/11/25 03:23:52;;;;;;;132.37;41.47;;;4.10;99.90;;;;;;5152514;27;20291;-67
2021/11/25 03:26:23;;;;;;;128.00;42.50;;;4.10;99.90;;;;;;5133468;27;20203;-67
2021/11/25 03:28:52;;;;;;;124.97;39.57;;;4.10;99.90;;;;;;5149709;27;20220;-67
2021/11/25 03:31:24;;;;;;;113.83;40.07;;;4.00;99.90;;;;;;5151112;27;20214;-67
2021/11/25 03:33:54;;;;;;;133.20;41.07;;;4.00;99.90;;;;;;5158903;27;21639;-66
2021/11/25 03:36:24;;;;;;;133.73;42.30;;;4.00;99.90;;;;;;5134654;27;20243;-68
2021/11/25 03:38:57;;;;;;;130.40;42.40;;;3.90;99.90;;;;;;5148672;27;20221;-67
2021/11/25 03:41:27;;;;;;;117.40;41.63;;;3.90;99.90;;;;;;5149477;27;20210;-68
2021/11/25 03:43:57;;;;;;;124.43;41.43;;;3.90;99.90;;;;;;5150276;27;20229;-67
2021/11/25 03:46:26;;;;;;;128.53;42.53;;;3.90;99.90;;;;;;5148781;27;20216;-66
2021/11/25 03:48:55;;;;;;;132.20;44.13;;;4.00;99.90;;;;;;5153688;27;20182;-67
2021/11/25 03:51:24;;;;;;;140.40;43.80;;;4.00;99.90;;;;;;5127373;27;20557;-67
2021/11/25 03:53:54;;;;;;;140.40;44.83;;;4.00;99.90;;;;;;5161441;27;20193;-67
2021/11/25 03:56:22;;;;;;;140.23;43.60;;;4.10;99.90;;;;;;5145212;27;20283;-67
2021/11/25 03:58:51;;;;;;;155.77;47.17;;;4.20;99.90;;;;;;5151163;27;20298;-67
2021/11/25 04:01:21;;;;;;;128.17;41.00;;;4.20;99.90;;;;;;5157395;27;20255;-66
2021/11/25 04:03:50;;;;;;;148.83;43.77;;;4.20;99.90;;;;;;5146850;27;20525;-66
2021/11/25 04:06:19;;;;;;;116.63;39.83;;;4.20;99.90;;;;;;5157959;27;20247;-67
2021/11/25 04:08:52;;;;;;;137.90;43.60;;;4.10;99.90;;;;;;5156416;27;20207;-67
2021/11/25 04:11:20;;;;;;;145.27;44.53;;;4.10;99.90;;;;;;5145302;27;20209;-67
2021/11/25 04:13:48;;;;;;;136.73;42.27;;;4.10;99.90;;;;;;5149502;27;20270;-67
2021/11/25 04:16:17;;;;;;;131.53;42.87;;;4.10;99.90;;;;;;5143331;27;20637;-67
2021/11/25 04:18:45;;;;;;;145.27;43.43;;;4.10;99.90;;;;;;5130001;27;20198;-67
2021/11/25 04:21:14;;;;;;;123.97;40.77;;;4.10;99.90;;;;;;5159166;27;20268;-66
2021/11/25 04:23:42;;;;;;;134.13;41.60;;;4.10;99.90;;;;;;5153782;27;20217;-67
2021/11/25 04:26:12;;;;;;;144.00;43.13;;;4.10;99.90;;;;;;5145604;27;20212;-66
2021/11/25 04:28:41;;;;;;;129.30;41.47;;;4.10;99.90;;;;;;5157991;27;20532;-67
2021/11/25 04:36:43;;;;;;;115.97;38.67;;;4.00;99.90;;;;;;5157258;27;20190;-67
2021/11/25 04:39:13;;;;;;;148.13;45.00;;;3.90;99.90;;;;;;5146561;27;20193;-67
2021/11/25 04:41:43;;;;;;;153.47;42.23;;;3.90;99.90;;;;;;5135537;27;20811;-67
2021/11/25 04:44:11;;;;;;;136.00;42.73;;;3.90;99.90;;;;;;5153964;27;20667;-67
2021/11/25 04:46:40;;;;;;;152.83;44.27;;;4.00;99.90;;;;;;5150446;27;20536;-66
2021/11/25 04:49:09;;;;;;;142.53;41.90;;;4.00;99.90;;;;;;5151006;27;20607;-67
2021/11/25 04:51:37;;;;;;;143.40;43.67;;;4.10;99.90;;;;;;5156442;27;20664;-67
2021/11/25 04:54:07;;;;;;;131.17;42.43;;;4.10;99.90;;;;;;5134791;27;20314;-67
2021/11/25 04:56:37;;;;;;;137.10;43.07;;;4.20;99.90;;;;;;5141182;27;20225;-67
2021/11/25 04:59:07;;;;;;;141.90;43.10;;;4.20;99.90;;;;;;5150069;27;20186;-67
2021/11/25 05:01:35;;;;;;;136.97;42.43;;;4.30;99.90;;;;;;5151998;27;20296;-67
2021/11/25 05:04:04;;;;;;;133.23;42.67;;;4.30;99.90;;;;;;5144012;27;20265;-67
2021/11/25 05:06:35;;;;;;;135.20;41.20;;;4.40;99.90;;;;;;5147306;27;20193;-67
2021/11/25 05:09:04;;;;;;;138.63;41.87;;;4.40;99.90;;;;;;5144738;27;20198;-67
2021/11/25 05:11:33;;;;;;;142.23;42.73;;;4.40;99.90;;;;;;5149557;27;20727;-67
2021/11/25 05:14:01;;;;;;;135.27;41.97;;;4.40;99.90;;;;;;5137168;27;21348;-67
2021/11/25 05:16:31;;;;;;;131.90;41.57;;;4.40;99.90;;;;;;5144046;27;20770;-67
2021/11/25 05:19:00;;;;;;;132.53;40.80;;;4.40;99.90;;;;;;5131051;27;20200;-67
2021/11/25 05:21:28;;;;;;;126.47;40.80;;;4.40;99.90;;;;;;5148743;27;20241;-67
2021/11/25 05:23:57;;;;;;;129.57;41.33;;;4.40;99.90;;;;;;5140992;27;20670;-67
2021/11/25 05:26:26;;;;;;;143.90;42.17;;;4.40;99.90;;;;;;5142576;27;20612;-66
2021/11/25 05:28:55;;;;;;;148.10;42.50;;;4.50;99.90;;;;;;5125044;27;20186;-67
2021/11/25 05:31:24;;;;;;;145.53;44.57;;;4.50;99.90;;;;;;5144558;27;20636;-67
2021/11/25 05:33:54;;;;;;;148.90;44.07;;;4.60;99.90;;;;;;5147333;27;20746;-67
2021/11/25 05:36:22;;;;;;;149.23;42.97;;;4.60;99.90;;;;;;5155105;27;20559;-67
2021/11/25 05:38:51;;;;;;;138.80;43.23;;;4.60;99.90;;;;;;5141401;27;20231;-67
2021/11/25 05:41:20;;;;;;;140.67;42.83;;;4.60;99.90;;;;;;5120786;27;20220;-67
2021/11/25 05:43:48;;;;;;;146.03;43.57;;;4.60;99.90;;;;;;5157706;27;20352;-67
2021/11/25 05:46:17;;;;;;;130.70;43.57;;;4.60;99.90;;;;;;5142353;27;20197;-68
2021/11/25 05:48:46;;;;;;;161.13;45.53;;;4.60;99.90;;;;;;5141816;27;20194;-68
2021/11/25 05:51:18;;;;;;;139.83;44.10;;;4.60;99.90;;;;;;5119942;27;20562;-68
2021/11/25 05:53:47;;;;;;;143.93;45.23;;;4.60;99.90;;;;;;5144457;27;20185;-68
2021/11/25 05:56:16;;;;;;;143.30;43.83;;;4.60;99.90;;;;;;5145496;27;20192;-67
2021/11/25 05:58:44;;;;;;;149.87;44.83;;;4.60;99.90;;;;;;5146926;27;20197;-67
2021/11/25 06:01:13;;;;;;;134.73;43.83;;;4.80;99.90;;;;;;5138307;27;20628;-68
2021/11/25 06:04:19;;;;;;;140.63;42.63;;;4.70;99.90;;;;;;5144064;27;20279;-68
2021/11/25 06:07:27;;;;;;;142.53;44.30;;;4.70;99.90;;;;;;5146702;27;20254;-68
2021/11/25 06:09:55;;;;;;;138.70;44.37;;;4.70;99.90;;;;;;5123893;27;20189;-68
2021/11/25 06:12:24;;;;;;;142.77;43.53;;;4.70;99.90;;;;;;5145394;27;20178;-68
2021/11/25 06:14:53;;;;;;;141.13;42.03;;;4.70;99.90;;;;;;5155427;27;20189;-68
2021/11/25 06:17:21;;;;;;;147.03;44.73;;;4.70;99.90;;;;;;5136059;27;20715;-68
2021/11/25 06:19:53;;;;;;;153.77;46.00;;;4.80;99.90;;;;;;5147982;27;20258;-68
2021/11/25 06:22:22;;;;;;;147.80;46.03;;;4.80;99.90;;;;;;5142755;27;20244;-68
2021/11/25 06:24:52;;;;;;;144.20;45.57;;;4.90;99.90;;;;;;5141355;27;20228;-68
2021/11/25 06:27:20;;;;;;;149.77;45.20;;;4.90;99.90;;;;;;5120889;27;20225;-68
2021/11/25 06:29:49;;;;;;;161.33;47.67;;;4.90;99.90;;;;;;5138875;27;20277;-68
2021/11/25 06:32:17;;;;;;;142.07;45.63;;;4.80;99.90;;;;;;5145966;27;20276;-68
2021/11/25 06:34:46;;;;;;;149.47;45.53;;;4.80;99.90;;;;;;5133501;27;20190;-68
2021/11/25 06:37:14;;;;;;;140.83;46.60;;;4.80;99.90;;;;;;5148566;27;20190;-68
2021/11/25 06:39:42;;;;;;;150.27;45.47;;;4.70;99.90;;;;;;5121036;27;20213;-68
2021/11/25 06:42:12;;;;;;;145.17;45.63;;;4.70;99.90;;;;;;5140929;27;20248;-68
2021/11/25 06:44:41;;;;;;;156.17;47.37;;;4.70;99.90;;;;;;5146410;27;20220;-68
2021/11/25 06:47:10;;;;;;;141.33;46.10;;;4.70;99.90;;;;;;5142629;27;20254;-68
2021/11/25 06:49:38;;;;;;;149.47;45.63;;;4.70;99.90;;;;;;5131669;27;20190;-68
2021/11/25 06:52:08;;;;;;;160.30;45.97;;;4.70;99.90;;;;;;5146225;27;20241;-68
2021/11/25 06:54:36;;;;;;;151.57;47.17;;;4.70;99.90;;;;;;5126305;27;20190;-68
2021/11/25 06:57:05;;;;;;;154.50;46.93;;;4.70;99.90;;;;;;5141180;27;20253;-67
2021/11/25 06:59:36;;;;;;;145.43;45.63;;;4.70;99.90;;;;;;5139011;27;20258;-68
2021/11/25 07:02:07;;;;;;;155.93;46.10;;;4.70;99.90;;;;;;5127679;27;20694;-67
2021/11/25 07:04:36;;;;;;;137.17;44.00;;;4.70;99.90;;;;;;5142580;27;20198;-68
2021/11/25 07:07:05;;;;;;;141.07;45.20;;;4.70;99.90;;;;;;5154941;27;20285;-68
2021/11/25 07:09:33;;;;;;;152.53;46.87;;;4.70;99.90;;;;;;5150573;27;20204;-68
2021/11/25 07:12:03;;;;;;;147.27;46.60;;;4.80;99.90;;;;;;5149491;27;20230;-67
2021/11/25 07:14:31;;;;;;;146.07;47.60;;;4.80;99.90;;;;;;5149829;27;20593;-68
2021/11/25 07:17:01;;;;;;;147.90;47.20;;;4.80;99.90;;;;;;5141705;27;20221;-68
2021/11/25 07:19:29;;;;;;;140.80;46.60;;;4.80;99.90;;;;;;5147310;27;20233;-68
2021/11/25 07:21:57;;;;;;;144.47;46.03;;;4.80;99.90;;;;;;5151826;27;20240;-67
2021/11/25 07:24:26;;;;;;;143.87;48.27;;;4.70;99.90;;;;;;5142233;27;20236;-68
2021/11/25 07:26:54;;;;;;;146.53;47.43;;;4.80;99.90;;;;;;5139804;27;20185;-67
2021/11/25 07:29:24;;;;;;;146.67;48.27;;;4.80;99.90;;;;;;5146001;27;20225;-68
2021/11/25 07:31:52;;;;;;;140.33;47.03;;;4.80;99.90;;;;;;5147031;27;20205;-67
2021/11/25 07:34:23;;;;;;;155.70;48.53;;;4.90;99.90;;;;;;5121630;27;20682;-68
2021/11/25 07:36:51;;;;;;;147.83;48.03;;;4.90;99.90;;;;;;5139249;27;20562;-68
2021/11/25 07:39:19;;;;;;;142.80;46.90;;;4.80;99.90;;;;;;5161406;27;20706;-68
2021/11/25 07:41:48;;;;;;;136.50;45.27;;;4.80;99.90;;;;;;5112170;27;20211;-67
2021/11/25 07:44:16;;;;;;;134.93;46.47;;;4.80;99.90;;;;;;5147365;27;20592;-68
2021/11/25 07:46:45;;;;;;;154.97;50.97;;;4.80;99.90;;;;;;5148435;27;20671;-68
2021/11/25 07:49:14;;;;;;;143.47;47.60;;;4.90;99.90;;;;;;5147570;27;20190;-68
2021/11/25 07:51:46;;;;;;;148.63;47.83;;;4.90;99.90;;;;;;5138569;27;20651;-67
2021/11/25 07:54:14;;;;;;;141.07;47.23;;;5.00;99.90;;;;;;5143611;27;20270;-68
2021/11/25 07:56:42;;;;;;;140.37;46.57;;;5.00;99.90;;;;;;5149398;27;20187;-68
2021/11/25 07:59:11;;;;;;;140.07;47.33;;;5.00;99.90;;;;;;5143628;27;20603;-68
2021/11/25 08:02:35;;;;;;;139.77;46.40;;;5.00;99.90;;;;;;5145186;27;20200;-68
2021/11/25 08:05:44;;;;;;;120.17;41.87;;;5.00;99.90;;;;;;5142721;27;20197;-67
2021/11/25 08:08:52;;;;;;;141.17;46.77;;;5.10;99.90;;;;;;5138715;27;20201;-68
2021/11/25 08:11:58;;;;;;;262.87;94.83;;;5.10;99.90;;;;;;5139594;27;20228;-67
2021/11/25 08:15:04;;;;;;;284.27;108.23;;;5.10;99.90;;;;;;5149946;27;20632;-67
2021/11/25 08:18:12;;;;;;;276.77;108.47;;;5.20;99.90;;;;;;5142883;27;20222;-68
2021/11/25 08:21:22;;;;;;;277.40;112.63;;;5.30;99.90;;;;;;5145688;27;20278;-68
2021/11/25 08:24:29;;;;;;;230.30;85.37;;;5.30;99.90;;;;;;5146065;27;20197;-67
2021/11/25 08:27:36;;;;;;;174.37;61.83;;;5.40;99.90;;;;;;5142268;27;20277;-68
2021/11/25 08:30:42;;;;;;;226.60;101.97;;;5.40;99.90;;;;;;5142684;27;20216;-67
2021/11/25 08:33:49;;;;;;;146.30;52.43;;;5.40;99.90;;;;;;5150824;27;20193;-68
2021/11/25 08:36:55;;;;;;;132.87;48.73;;;5.40;99.90;;;;;;5136115;27;20197;-67
2021/11/25 08:40:03;;;;;;;148.93;52.83;;;5.40;99.90;;;;;;5143733;27;20200;-68
2021/11/25 08:43:09;;;;;;;138.43;52.27;;;5.50;99.90;;;;;;5142929;27;20208;-68
2021/11/25 08:46:16;;;;;;;130.60;49.43;;;5.50;99.90;;;;;;5140878;27;20201;-68
2021/11/25 08:49:23;;;;;;;126.93;47.33;;;5.50;99.90;;;;;;5143300;27;20212;-67
2021/11/25 08:52:33;;;;;;;133.90;48.80;;;5.60;99.90;;;;;;5144720;27;20197;-67
2021/11/25 08:55:41;;;;;;;131.73;48.73;;;5.70;99.90;;;;;;5139617;27;20223;-67
2021/11/25 08:58:49;;;;;;;136.40;51.67;;;5.80;99.90;;;;;;5143898;27;20224;-68
2021/11/25 09:01:55;;;;;;;129.97;47.77;;;5.70;99.90;;;;;;5138579;27;20224;-67
2021/11/25 09:05:02;;;;;;;138.33;52.97;;;5.80;99.90;;;;;;5144956;27;20199;-68
2021/11/25 09:08:08;;;;;;;140.07;53.97;;;5.80;99.90;;;;;;5150665;27;20200;-68
2021/11/25 09:11:17;;;;;;;121.93;48.07;;;5.80;99.90;;;;;;5146242;27;20197;-67
2021/11/25 09:14:23;;;;;;;139.13;55.80;;;5.90;99.90;;;;;;5142002;27;20242;-68
2021/11/25 09:17:30;;;;;;;125.47;48.43;;;6.00;99.90;;;;;;5136530;27;20212;-67
2021/11/25 09:20:56;;;;;;;121.90;46.27;;;6.10;99.90;;;;;;5137085;27;20711;-68
2021/11/25 09:24:05;;;;;;;119.07;45.03;;;6.20;99.90;;;;;;5144814;27;20307;-68
2021/11/25 09:27:12;;;;;;;117.30;46.73;;;6.20;99.90;;;;;;5146591;27;20665;-68
2021/11/25 09:30:19;;;;;;;115.53;44.57;;;6.20;99.90;;;;;;5142219;27;20199;-68
2021/11/25 09:33:25;;;;;;;116.60;45.40;;;6.30;99.90;;;;;;5150029;27;20192;-68
2021/11/25 09:36:31;;;;;;;119.30;45.93;;;6.40;99.90;;;;;;5142733;27;20196;-67
2021/11/25 09:39:37;;;;;;;109.80;45.03;;;6.40;99.90;;;;;;5148136;27;20709;-67
2021/11/25 09:42:45;;;;;;;100.13;43.60;;;6.60;99.90;;;;;;5148028;27;20184;-68
2021/11/25 09:45:52;;;;;;;96.73;42.00;;;6.70;99.90;;;;;;5148799;27;20280;-68
2021/11/25 09:48:59;;;;;;;90.33;39.73;;;6.70;99.90;;;;;;5139092;27;20256;-67
2021/11/25 09:52:05;;;;;;;97.60;42.17;;;6.80;99.90;;;;;;5143287;27;20285;-68
2021/11/25 09:55:11;;;;;;;93.50;39.53;;;6.90;99.90;;;;;;5142224;27;20212;-68
2021/11/25 09:58:21;;;;;;;97.07;39.43;;;6.90;99.90;;;;;;5140956;27;20239;-68
2021/11/25 10:01:27;;;;;;;94.33;40.23;;;7.00;99.90;;;;;;5140306;27;20201;-68
2021/11/25 10:04:34;;;;;;;82.23;37.40;;;7.10;99.90;;;;;;5142374;27;20264;-68
2021/11/25 10:07:45;;;;;;;85.63;39.00;;;7.30;99.90;;;;;;5140519;27;20197;-68
2021/11/25 10:10:59;;;;;;;71.07;34.53;;;7.40;99.90;;;;;;5145302;27;20327;-68
2021/11/25 10:14:09;;;;;;;68.50;33.40;;;7.50;99.90;;;;;;5148807;27;20237;-67
2021/11/25 10:17:16;;;;;;;64.90;32.10;;;7.60;99.90;;;;;;5147182;27;20286;-68
2021/11/25 10:20:24;;;;;;;62.43;30.73;;;7.70;99.90;;;;;;5148940;27;20233;-67
2021/11/25 10:23:30;;;;;;;67.53;30.50;;;7.80;99.90;;;;;;5147670;27;20691;-67
2021/11/25 10:26:37;;;;;;;59.73;30.17;;;7.80;99.90;;;;;;5146778;27;20778;-68
2021/11/25 10:29:44;;;;;;;62.60;29.53;;;7.90;99.90;;;;;;5141237;27;20318;-68
2021/11/25 10:32:57;;;;;;;58.37;28.47;;;8.00;99.90;;;;;;5144243;27;20197;-67
2021/11/25 10:36:28;;;;;;;56.37;26.93;;;8.10;99.90;;;;;;5149157;27;20252;-67
2021/11/25 10:39:48;;;;;;;52.60;26.37;;;8.20;99.90;;;;;;5142664;27;20188;-68
2021/11/25 10:42:54;;;;;;;47.73;25.67;;;8.30;99.90;;;;;;5143212;27;20563;-67
2021/11/25 10:46:02;;;;;;;46.90;24.97;;;8.30;99.90;;;;;;5145088;27;20910;-67
2021/11/25 10:49:11;;;;;;;50.07;24.93;;;8.40;99.90;;;;;;5144258;27;20235;-67
2021/11/25 10:52:26;;;;;;;46.10;25.27;;;8.40;99.90;;;;;;5138880;27;20582;-67
2021/11/25 10:55:33;;;;;;;46.03;23.93;;;8.30;99.90;;;;;;5147925;27;20236;-68
2021/11/25 10:58:50;;;;;;;48.13;25.00;;;8.30;99.90;;;;;;5138858;27;20605;-67
2021/11/25 11:01:58;;;;;;;45.20;24.00;;;8.30;99.90;;;;;;5141244;27;20200;-67
2021/11/25 11:05:10;;;;;;;47.83;24.27;;;8.20;99.90;;;;;;5141925;27;20239;-67
2021/11/25 11:08:18;;;;;;;51.63;25.93;;;8.20;99.90;;;;;;5136549;27;20204;-68
2021/11/25 11:11:23;;;;;;;51.10;25.10;;;8.10;99.90;;;;;;5140903;27;20196;-69
2021/11/25 11:14:39;;;;;;;48.07;25.20;;;8.10;99.90;;;;;;5141514;27;20597;-68
2021/11/25 11:18:02;;;;;;;51.33;25.73;;;8.00;99.90;;;;;;5136315;27;20204;-69
2021/11/25 11:21:08;;;;;;;54.60;26.27;;;7.90;99.90;;;;;;5147230;27;20323;-69
2021/11/25 11:24:16;;;;;;;49.97;25.53;;;7.90;99.90;;;;;;5145117;27;20209;-69
2021/11/25 11:27:21;;;;;;;51.53;26.83;;;7.90;99.90;;;;;;5146090;27;20197;-69
2021/11/25 11:30:28;;;;;;;56.27;27.13;;;7.80;99.90;;;;;;5142090;27;20197;-69
2021/11/25 11:33:36;;;;;;;58.20;27.43;;;7.80;99.90;;;;;;5142945;27;20193;-69
2021/11/25 11:36:44;;;;;;;53.03;27.43;;;7.80;99.90;;;;;;5140631;27;20334;-69
2021/11/25 11:39:52;;;;;;;55.10;25.47;;;7.80;99.90;;;;;;5151531;27;20661;-69
2021/11/25 11:43:06;;;;;;;53.60;26.97;;;7.90;99.90;;;;;;5145886;27;20204;-69
2021/11/25 11:46:13;;;;;;;53.23;25.87;;;7.90;99.90;;;;;;5143906;27;20563;-70
2021/11/25 11:49:23;;;;;;;54.67;26.30;;;8.00;99.90;;;;;;5143836;27;20566;-69
2021/11/25 11:52:29;;;;;;;44.13;22.80;;;8.00;99.90;;;;;;5151022;27;20193;-69
2021/11/25 11:55:41;;;;;;;47.67;22.57;;;8.00;99.90;;;;;;5147131;27;20569;-69
2021/11/25 11:58:53;;;;;;;48.40;22.37;;;8.10;99.90;;;;;;5139871;27;20196;-69
2021/11/25 12:01:58;;;;;;;43.10;21.63;;;8.20;99.90;;;;;;5138667;27;20229;-68
2021/11/25 12:04:41;;;;;;;45.83;21.20;;;8.30;99.90;;;;;;5121358;27;20760;-69
2021/11/25 12:07:26;;;;;;;42.50;21.43;;;8.30;99.90;;;;;;5151004;27;20193;-68
2021/11/25 12:09:56;;;;;;;47.57;22.23;;;8.40;99.90;;;;;;5146470;27;20246;-69
2021/11/25 12:12:27;;;;;;;43.10;21.00;;;8.40;99.90;;;;;;5129288;27;20194;-68
2021/11/25 12:14:57;;;;;;;45.23;20.20;;;8.40;99.90;;;;;;5124575;27;20190;-68
2021/11/25 12:17:30;;;;;;;42.20;20.70;;;8.40;99.90;;;;;;5158851;27;20190;-68
2021/11/25 12:20:19;;;;;;;43.90;20.93;;;8.40;99.90;;;;;;5122376;27;20194;-68
2021/11/25 12:22:49;;;;;;;48.93;21.13;;;8.50;99.90;;;;;;5143139;27;20250;-68
2021/11/25 12:25:34;;;;;;;45.60;21.53;;;8.50;99.90;;;;;;5141201;27;20608;-69
2021/11/25 12:28:27;;;;;;;41.40;19.73;;;8.50;99.90;;;;;;5162460;27;20198;-68
2021/11/25 12:31:08;;;;;;;43.33;20.00;;;8.50;99.90;;;;;;5158615;27;20236;-68
2021/11/25 12:33:43;;;;;;;39.67;18.63;;;8.50;99.90;;;;;;5148864;27;20186;-68
2021/11/25 12:36:35;;;;;;;36.67;18.60;;;8.60;99.90;;;;;;5135149;27;20202;-69
2021/11/25 12:39:05;;;;;;;38.73;19.23;;;8.60;99.90;;;;;;5146960;27;20227;-68
2021/11/25 12:41:36;;;;;;;37.17;17.83;;;8.70;99.90;;;;;;5131454;27;20189;-69
2021/11/25 12:44:06;;;;;;;33.60;18.27;;;8.70;99.90;;;;;;5138798;27;20582;-68
2021/11/25 12:46:34;;;;;;;35.87;17.17;;;8.80;99.90;;;;;;5120074;27;20190;-68
2021/11/25 12:49:04;;;;;;;32.87;17.23;;;8.80;99.90;;;;;;5152014;27;20291;-68
2021/11/25 12:51:35;;;;;;;37.37;16.97;;;8.80;99.90;;;;;;5149973;27;20232;-68
2021/11/25 12:54:05;;;;;;;35.50;17.23;;;8.90;99.90;;;;;;5150011;27;20255;-68
2021/11/25 12:56:38;;;;;;;33.50;15.57;;;8.90;99.90;;;;;;5147627;27;20202;-68
2021/11/25 12:59:08;;;;;;;32.50;14.67;;;8.90;99.90;;;;;;5140743;27;20193;-68
2021/11/25 13:01:38;;;;;;;27.40;14.73;;;8.90;99.90;;;;;;5133634;27;20193;-68
2021/11/25 13:04:10;;;;;;;30.50;13.70;;;8.90;99.90;;;;;;5139731;27;20194;-68
2021/11/25 13:06:43;;;;;;;26.73;13.57;;;8.80;99.90;;;;;;5146823;27;20250;-68
2021/11/25 13:09:15;;;;;;;29.07;13.67;;;8.80;99.90;;;;;;5143721;27;20668;-68
2021/11/25 13:11:46;;;;;;;28.47;12.57;;;8.90;99.90;;;;;;5142938;27;20714;-68
2021/11/25 13:14:18;;;;;;;28.53;12.47;;;8.90;99.90;;;;;;5140514;27;20556;-68
2021/11/25 13:16:48;;;;;;;24.67;12.23;;;8.90;99.90;;;;;;5125666;27;20597;-68
2021/11/25 13:19:18;;;;;;;27.40;11.30;;;8.90;99.90;;;;;;5141653;27;20562;-68
2021/11/25 13:21:49;;;;;;;22.03;10.23;;;9.00;99.90;;;;;;5148313;27;20227;-68
2021/11/25 13:24:23;;;;;;;19.83;8.93;;;9.00;99.90;;;;;;5147502;27;20228;-68
2021/11/25 13:27:01;;;;;;;23.17;9.80;;;9.00;99.90;;;;;;5153570;27;20238;-68
2021/11/25 13:29:33;;;;;;;21.53;8.57;;;9.00;99.90;;;;;;5139492;27;20629;-68
2021/11/25 13:32:04;;;;;;;16.43;8.17;;;9.00;99.90;;;;;;5148545;27;20766;-68
2021/11/25 13:34:34;;;;;;;22.77;7.80;;;9.00;99.90;;;;;;5131861;27;20718;-69
2021/11/25 13:37:06;;;;;;;16.83;8.30;;;9.00;99.90;;;;;;5130193;27;20272;-68
2021/11/25 13:39:37;;;;;;;16.50;8.00;;;9.10;99.90;;;;;;5138681;27;20780;-68
2021/11/25 13:42:09;;;;;;;35.97;15.73;;;9.10;99.90;;;;;;5141660;27;20289;-68